Time;durP1;ratioP1;P1;durP2;ratioP2;P2;SDS_P1;SDS_P2;PMS_P1;PMS_P2;Temp;Humidity;BMP_temperature;BMP_pressure;BME280_temperature;BME280_humidity;BME280_pressure;Samples;Min_cycle;Max_cycle;Signal;HPM_P1;HPM_P2
2024/04/07 00:01:40;;;;;;;0.00;0.00;;;;;;;17.44;48.47;98845.53;5041377;28;20227;-58
2024/04/07 00:04:07;;;;;;;0.00;0.00;;;;;;;17.21;49.25;98841.06;5031208;28;20105;-58
2024/04/07 00:06:33;;;;;;;0.00;0.00;;;;;;;17.26;49.35;98846.38;5034573;28;20041;-58
2024/04/07 00:09:03;;;;;;;0.00;0.00;;;;;;;16.68;52.47;98852.09;5040025;28;20087;-58
2024/04/07 00:11:31;;;;;;;0.00;0.00;;;;;;;16.74;50.91;98854.44;5032842;28;20653;-58
2024/04/07 00:14:01;;;;;;;0.00;0.00;;;;;;;16.86;51.03;98854.03;5032998;28;20618;-59
2024/04/07 00:16:29;;;;;;;0.00;0.00;;;;;;;16.85;50.43;98844.31;5034864;28;20059;-58
2024/04/07 00:18:56;;;;;;;0.00;0.00;;;;;;;16.89;51.87;98847.22;5036513;28;20387;-58
2024/04/07 00:21:23;;;;;;;0.00;0.00;;;;;;;16.73;52.87;98850.13;5034418;28;20119;-58
2024/04/07 00:23:51;;;;;;;0.00;0.00;;;;;;;16.39;55.29;98850.28;5029132;28;20053;-57
2024/04/07 00:26:17;;;;;;;0.00;0.00;;;;;;;16.11;55.43;98852.00;5031941;28;20041;-58
2024/04/07 00:28:44;;;;;;;0.00;0.00;;;;;;;15.86;58.62;98858.47;5037001;28;20150;-57
2024/04/07 00:31:10;;;;;;;0.00;0.00;;;;;;;15.76;60.06;98861.28;5033484;28;20041;-58
2024/04/07 00:33:39;;;;;;;0.00;0.00;;;;;;;16.13;58.02;98850.59;5038447;28;20128;-58
2024/04/07 00:36:06;;;;;;;0.00;0.00;;;;;;;16.44;55.18;98844.03;5037427;28;20052;-58
2024/04/07 00:38:33;;;;;;;0.00;0.00;;;;;;;16.63;55.23;98838.66;5035935;28;20076;-57
2024/04/07 00:41:00;;;;;;;0.00;0.00;;;;;;;16.72;52.63;98842.28;5034592;28;20077;-58
2024/04/07 00:43:28;;;;;;;0.00;0.00;;;;;;;16.84;52.77;98853.50;5024447;28;20056;-58
2024/04/07 00:45:54;;;;;;;0.10;0.10;;;;;;;16.92;51.50;98844.72;5036228;28;20047;-58
2024/04/07 00:48:21;;;;;;;0.00;0.00;;;;;;;17.12;50.20;98842.81;5031999;28;20123;-58
2024/04/07 00:50:49;;;;;;;0.00;0.00;;;;;;;17.42;49.44;98849.63;5031851;28;20124;-58
2024/04/07 00:53:17;;;;;;;0.00;0.00;;;;;;;17.56;49.61;98852.41;5026535;28;20126;-60
2024/04/07 00:55:43;;;;;;;0.05;0.00;;;;;;;17.67;48.76;98848.38;5039187;28;20135;-58
2024/04/07 00:58:10;;;;;;;0.10;0.10;;;;;;;17.68;48.72;98853.53;5035123;28;20186;-58
2024/04/07 01:00:36;;;;;;;0.00;0.00;;;;;;;17.80;48.21;98858.50;5032612;28;20127;-58
2024/04/07 01:03:04;;;;;;;0.00;0.00;;;;;;;17.77;48.27;98864.50;5032515;28;20099;-57
2024/04/07 01:05:38;;;;;;;0.00;0.00;;;;;;;17.76;48.62;98873.72;5033176;28;20136;-58
2024/04/07 01:08:07;;;;;;;0.00;0.00;;;;;;;17.73;48.93;98868.91;5035768;28;20499;-58
2024/04/07 01:10:34;;;;;;;0.00;0.00;;;;;;;17.60;49.21;98866.97;5029537;28;20055;-57
2024/04/07 01:13:02;;;;;;;0.00;0.00;;;;;;;17.65;49.50;98864.16;5028309;28;20649;-58
2024/04/07 01:15:30;;;;;;;0.00;0.00;;;;;;;17.59;49.34;98858.00;5032489;28;20508;-58
2024/04/07 01:18:00;;;;;;;0.00;0.00;;;;;;;17.48;49.79;98858.50;5038193;28;20064;-58
2024/04/07 01:20:27;;;;;;;0.00;0.00;;;;;;;17.54;49.48;98865.44;5042877;28;20508;-57
2024/04/07 01:22:54;;;;;;;0.00;0.00;;;;;;;17.53;49.72;98861.13;5034556;28;20132;-58
2024/04/07 01:25:22;;;;;;;0.10;0.10;;;;;;;17.59;49.33;98868.84;5035222;28;20360;-58
2024/04/07 01:27:54;;;;;;;0.00;0.00;;;;;;;17.55;49.60;98886.03;5040300;28;20495;-57
2024/04/07 01:30:20;;;;;;;0.00;0.00;;;;;;;17.42;50.20;98896.50;5039859;28;20735;-58
2024/04/07 01:32:47;;;;;;;0.00;0.00;;;;;;;17.42;49.97;98887.56;5040534;28;20671;-57
2024/04/07 01:35:13;;;;;;;0.10;0.10;;;;;;;17.41;50.15;98894.88;5017657;28;20099;-58
2024/04/07 01:37:41;;;;;;;0.10;0.10;;;;;;;17.31;50.33;98883.41;5032098;28;20610;-57
2024/04/07 01:40:09;;;;;;;0.00;0.00;;;;;;;17.44;49.66;98878.03;5033292;28;20069;-57
2024/04/07 01:42:37;;;;;;;0.00;0.00;;;;;;;17.59;49.50;98874.28;5028442;28;20440;-58
2024/04/07 01:45:04;;;;;;;0.00;0.00;;;;;;;17.66;49.26;98882.03;5032612;28;20812;-58
2024/04/07 01:47:31;;;;;;;0.00;0.00;;;;;;;17.49;49.64;98879.06;5036758;28;20060;-58
2024/04/07 01:50:00;;;;;;;0.00;0.00;;;;;;;17.25;50.70;98890.81;5035791;28;20044;-58
2024/04/07 01:52:27;;;;;;;0.00;0.00;;;;;;;17.14;50.86;98892.06;5031967;28;20045;-58
2024/04/07 01:54:54;;;;;;;0.00;0.00;;;;;;;17.20;50.74;98893.63;5029543;28;20049;-58
2024/04/07 01:57:21;;;;;;;0.00;0.00;;;;;;;17.13;51.60;98909.41;5027935;28;20628;-57
2024/04/07 01:59:48;;;;;;;0.00;0.00;;;;;;;16.94;52.32;98907.50;5036705;28;20124;-57
2024/04/07 02:02:16;;;;;;;0.00;0.00;;;;;;;16.80;52.91;98912.03;5040023;28;20056;-58
2024/04/07 02:04:43;;;;;;;0.00;0.00;;;;;;;16.74;52.87;98918.56;5032152;28;20035;-58
2024/04/07 02:07:10;;;;;;;0.00;0.00;;;;;;;16.62;53.76;98913.56;5033020;28;20049;-57
2024/04/07 02:09:36;;;;;;;0.00;0.00;;;;;;;16.65;53.95;98913.00;5034462;28;20049;-58
2024/04/07 02:12:03;;;;;;;0.00;0.00;;;;;;;16.70;53.79;98907.53;5033771;28;20405;-58
2024/04/07 02:14:29;;;;;;;0.00;0.00;;;;;;;16.72;54.54;98915.34;5031514;28;20160;-58
2024/04/07 02:17:02;;;;;;;0.00;0.00;;;;;;;16.59;54.80;98919.56;5032528;28;20859;-58
2024/04/07 02:19:28;;;;;;;0.00;0.00;;;;;;;16.51;54.91;98928.34;5031265;28;20059;-58
2024/04/07 02:21:55;;;;;;;0.00;0.00;;;;;;;16.51;55.03;98923.72;5032953;28;20049;-58
2024/04/07 02:24:21;;;;;;;0.00;0.00;;;;;;;16.40;55.33;98935.78;5033259;28;20812;-58
2024/04/07 02:26:48;;;;;;;0.00;0.00;;;;;;;16.48;54.81;98937.03;5034431;28;20053;-58
2024/04/07 02:29:15;;;;;;;0.00;0.00;;;;;;;16.59;54.48;98931.19;5031010;28;20041;-58
2024/04/07 02:31:42;;;;;;;0.00;0.00;;;;;;;16.71;54.22;98938.91;5046421;28;20049;-58
2024/04/07 02:34:09;;;;;;;0.00;0.00;;;;;;;16.90;53.33;98938.97;5038734;28;20110;-57
2024/04/07 02:36:37;;;;;;;0.00;0.00;;;;;;;17.06;52.70;98946.88;5033466;28;20036;-57
2024/04/07 02:39:05;;;;;;;0.00;0.00;;;;;;;17.21;52.35;98949.38;5046203;28;20055;-58
2024/04/07 02:41:32;;;;;;;0.00;0.00;;;;;;;17.29;51.75;98948.72;5041604;28;20052;-57
2024/04/07 02:44:01;;;;;;;0.03;0.03;;;;;;;17.49;50.88;98957.63;5037995;28;20447;-58
2024/04/07 02:49:14;;;;;;;0.00;0.00;;;;;;;17.39;51.66;98961.28;5042343;28;20079;-57
2024/04/07 02:51:41;;;;;;;0.00;0.00;;;;;;;17.36;51.77;98956.47;5034031;28;20049;-58
2024/04/07 02:54:09;;;;;;;0.00;0.00;;;;;;;17.26;51.96;98962.84;5036380;28;20065;-57
2024/04/07 02:56:36;;;;;;;0.00;0.00;;;;;;;17.27;52.21;98980.69;5034678;28;20060;-57
2024/04/07 02:59:03;;;;;;;0.00;0.00;;;;;;;17.34;51.91;98978.44;5037759;28;20044;-58
2024/04/07 03:01:29;;;;;;;0.00;0.00;;;;;;;17.39;51.69;98989.19;5030850;28;20049;-58
2024/04/07 03:03:56;;;;;;;0.00;0.00;;;;;;;17.42;51.87;98999.47;5037153;28;20037;-58
2024/04/07 03:06:24;;;;;;;0.00;0.00;;;;;;;17.52;51.85;98998.47;5040153;28;20045;-58
2024/04/07 03:08:51;;;;;;;0.00;0.00;;;;;;;17.53;52.08;99013.66;5031671;28;20045;-58
2024/04/07 03:11:17;;;;;;;0.00;0.00;;;;;;;17.52;52.44;99014.72;5030248;28;20137;-58
2024/04/07 03:13:44;;;;;;;0.00;0.00;;;;;;;17.49;52.36;99022.66;5041344;28;20061;-57
2024/04/07 03:16:10;;;;;;;0.00;0.00;;;;;;;17.47;52.49;99028.34;5036878;28;20041;-58
2024/04/07 03:18:37;;;;;;;0.05;0.05;;;;;;;17.41;53.38;99051.22;5030804;28;20068;-58
2024/04/07 03:21:04;;;;;;;0.00;0.00;;;;;;;17.50;52.79;99044.06;5036136;28;20870;-58
2024/04/07 03:23:32;;;;;;;0.00;0.00;;;;;;;17.52;52.67;99051.88;5038097;28;20069;-58
2024/04/07 03:25:58;;;;;;;0.00;0.00;;;;;;;17.43;53.60;99059.84;5037492;28;20041;-57
2024/04/07 03:28:25;;;;;;;0.05;0.05;;;;;;;17.42;53.70;99074.47;5038146;28;20038;-58
2024/04/07 03:30:52;;;;;;;0.00;0.00;;;;;;;17.36;53.51;99086.50;5039596;28;20100;-57
2024/04/07 03:33:19;;;;;;;0.00;0.00;;;;;;;17.32;54.12;99102.50;5036109;28;20046;-58
2024/04/07 03:35:45;;;;;;;0.13;0.00;;;;;;;17.21;55.37;99115.38;5036781;28;20106;-57
2024/04/07 03:38:12;;;;;;;0.00;0.00;;;;;;;17.07;57.37;99116.34;5031078;28;20519;-58
2024/04/07 03:40:40;;;;;;;0.00;0.00;;;;;;;16.90;58.04;99117.63;5033296;28;20476;-58
2024/04/07 03:43:07;;;;;;;0.00;0.00;;;;;;;16.58;59.42;99108.16;5037129;28;20060;-57
2024/04/07 03:45:34;;;;;;;0.00;0.00;;;;;;;16.28;60.47;99106.53;5032930;28;20944;-58
2024/04/07 03:48:02;;;;;;;0.00;0.00;;;;;;;16.23;60.72;99108.47;5039680;28;20494;-57
2024/04/07 03:50:28;;;;;;;0.00;0.00;;;;;;;16.27;60.54;99106.78;5038783;28;20563;-58
2024/04/07 03:52:55;;;;;;;0.00;0.00;;;;;;;16.20;61.49;99109.00;5038676;28;20048;-57
2024/04/07 03:55:21;;;;;;;0.00;0.00;;;;;;;16.11;63.37;99117.72;5038790;28;20124;-58
2024/04/07 03:57:49;;;;;;;0.10;0.10;;;;;;;16.32;61.31;99112.16;5045137;28;20053;-58
2024/04/07 04:00:15;;;;;;;0.00;0.00;;;;;;;16.50;59.42;99121.47;5035830;28;20068;-58
2024/04/07 04:02:45;;;;;;;0.10;0.10;;;;;;;16.75;57.89;99129.38;5037107;28;20049;-58
2024/04/07 04:05:11;;;;;;;0.00;0.00;;;;;;;16.69;58.84;99132.41;5038516;28;20079;-58
2024/04/07 04:07:37;;;;;;;0.00;0.00;;;;;;;16.74;58.53;99137.78;5033372;28;20041;-58
2024/04/07 04:10:04;;;;;;;0.00;0.00;;;;;;;16.71;58.45;99135.66;5034007;28;20829;-58
2024/04/07 04:12:32;;;;;;;0.00;0.00;;;;;;;16.65;58.68;99131.34;5034713;28;20072;-58
2024/04/07 04:14:59;;;;;;;0.10;0.10;;;;;;;16.69;58.63;99140.53;5036382;28;20041;-57
2024/04/07 04:17:26;;;;;;;0.05;0.05;;;;;;;16.54;59.04;99141.47;5035544;28;20045;-58
2024/04/07 04:19:52;;;;;;;0.00;0.00;;;;;;;16.62;59.32;99151.66;5034345;28;20045;-58
2024/04/07 04:22:19;;;;;;;0.00;0.00;;;;;;;16.48;59.94;99148.03;5033229;28;20414;-58
2024/04/07 04:24:45;;;;;;;0.10;0.10;;;;;;;16.48;59.81;99143.41;5039635;28;20045;-57
2024/04/07 04:27:12;;;;;;;0.10;0.10;;;;;;;16.40;60.52;99135.91;5037853;28;20060;-57
2024/04/07 04:29:38;;;;;;;0.10;0.10;;;;;;;16.10;62.47;99137.75;5039783;28;20380;-58
2024/04/07 04:32:07;;;;;;;0.10;0.10;;;;;;;15.92;64.13;99131.09;5037572;28;20095;-58
2024/04/07 04:34:33;;;;;;;0.00;0.00;;;;;;;15.82;64.91;99125.75;5032322;28;20140;-57
2024/04/07 04:37:00;;;;;;;0.00;0.00;;;;;;;15.92;64.20;99138.41;5040573;28;20041;-57
2024/04/07 04:39:26;;;;;;;0.03;0.03;;;;;;;15.93;63.45;99140.03;5019826;28;20045;-61
2024/04/07 04:41:54;;;;;;;0.00;0.00;;;;;;;15.85;64.47;99146.00;5038418;28;20093;-58
2024/04/07 04:44:19;;;;;;;0.00;0.00;;;;;;;15.66;65.72;99153.91;5039725;28;20148;-58
2024/04/07 04:46:47;;;;;;;0.10;0.10;;;;;;;15.65;66.49;99161.22;5032395;28;20058;-58
2024/04/07 04:49:15;;;;;;;0.00;0.00;;;;;;;15.40;68.02;99172.09;5034771;28;20119;-57
2024/04/07 04:51:42;;;;;;;0.10;0.10;;;;;;;15.50;67.37;99188.28;5039463;28;20045;-57
2024/04/07 04:54:09;;;;;;;0.05;0.05;;;;;;;15.39;67.98;99182.09;5036785;28;20037;-57
2024/04/07 04:56:37;;;;;;;0.03;0.03;;;;;;;15.20;69.95;99190.00;5030677;28;20056;-58
2024/04/07 04:59:04;;;;;;;0.10;0.10;;;;;;;15.06;71.18;99180.84;5034331;28;20602;-58
2024/04/07 05:01:31;;;;;;;0.00;0.00;;;;;;;14.87;72.84;99191.38;5030633;28;20056;-58
2024/04/07 05:03:57;;;;;;;0.00;0.00;;;;;;;14.85;72.89;99185.44;5038598;28;20760;-58
2024/04/07 05:06:26;;;;;;;0.00;0.00;;;;;;;14.79;73.34;99186.56;5018997;28;20099;-58
2024/04/07 05:08:52;;;;;;;0.00;0.00;;;;;;;14.74;73.52;99181.16;5032413;28;20177;-57
2024/04/07 05:11:19;;;;;;;0.00;0.00;;;;;;;14.70;73.67;99199.75;5033707;28;20163;-58
2024/04/07 05:13:45;;;;;;;0.10;0.10;;;;;;;14.82;73.62;99216.47;5037762;28;20061;-57
2024/04/07 05:16:12;;;;;;;0.00;0.00;;;;;;;14.66;74.37;99218.38;5036833;28;20112;-57
2024/04/07 05:18:39;;;;;;;0.00;0.00;;;;;;;14.85;73.63;99237.56;5034018;28;20068;-58
2024/04/07 05:21:07;;;;;;;0.00;0.00;;;;;;;15.09;71.93;99243.19;5032294;28;20037;-57
2024/04/07 05:23:35;;;;;;;0.10;0.10;;;;;;;15.19;71.26;99250.47;5033928;28;20820;-57
2024/04/07 05:26:12;;;;;;;0.10;0.10;;;;;;;15.49;68.94;99257.69;5038916;28;20044;-58
2024/04/07 05:28:38;;;;;;;0.10;0.10;;;;;;;15.63;67.95;99263.34;5028660;28;20041;-58
2024/04/07 05:31:10;;;;;;;0.00;0.00;;;;;;;15.62;68.62;99266.31;5034086;28;20122;-58
2024/04/07 05:33:37;;;;;;;0.00;0.00;;;;;;;15.76;67.90;99267.38;5034079;28;20048;-58
2024/04/07 05:36:04;;;;;;;0.05;0.05;;;;;;;16.02;65.75;99259.97;5037371;28;20088;-58
2024/04/07 05:38:30;;;;;;;0.00;0.00;;;;;;;15.86;68.20;99253.03;5034739;28;20135;-58
2024/04/07 05:40:59;;;;;;;0.00;0.00;;;;;;;15.92;68.87;99251.91;5033108;28;20168;-58
2024/04/07 05:43:25;;;;;;;0.00;0.00;;;;;;;15.74;69.12;99262.25;5036660;28;20049;-58
2024/04/07 05:45:52;;;;;;;0.10;0.10;;;;;;;15.48;72.18;99279.59;5034923;28;20127;-58
2024/04/07 05:48:18;;;;;;;0.00;0.00;;;;;;;15.27;74.36;99279.59;5034845;28;20501;-58
2024/04/07 05:50:45;;;;;;;0.00;0.00;;;;;;;15.37;73.35;99272.59;5027837;28;20045;-58
2024/04/07 05:53:11;;;;;;;0.10;0.10;;;;;;;15.30;74.51;99270.16;5031586;28;20041;-58
2024/04/07 05:55:38;;;;;;;0.20;0.20;;;;;;;15.20;75.64;99298.00;5034045;28;20099;-58
2024/04/07 05:58:06;;;;;;;0.00;0.00;;;;;;;15.26;75.56;99294.19;5039058;28;20476;-57
2024/04/07 06:00:34;;;;;;;0.10;0.10;;;;;;;15.40;74.12;99296.34;5037049;28;20187;-58
2024/04/07 06:03:00;;;;;;;0.10;0.10;;;;;;;15.51;74.38;99303.34;5033175;28;20063;-58
2024/04/07 06:05:27;;;;;;;0.10;0.10;;;;;;;15.50;74.27;99307.13;5037328;28;20124;-60
2024/04/07 06:07:53;;;;;;;0.00;0.00;;;;;;;15.66;73.75;99316.81;5033425;28;20051;-58
2024/04/07 06:10:20;;;;;;;0.00;0.00;;;;;;;15.85;73.83;99325.19;5036341;28;20045;-58
2024/04/07 06:12:46;;;;;;;0.10;0.10;;;;;;;16.02;72.72;99329.47;5028659;28;20076;-58
2024/04/07 06:15:15;;;;;;;0.10;0.10;;;;;;;16.04;71.65;99317.28;5029320;28;20040;-57
2024/04/07 06:17:43;;;;;;;0.00;0.00;;;;;;;15.94;72.41;99322.72;5031794;28;20043;-58
2024/04/07 06:20:11;;;;;;;0.00;0.00;;;;;;;15.73;75.22;99339.00;5036820;28;20049;-58
2024/04/07 06:22:37;;;;;;;0.00;0.00;;;;;;;15.69;74.50;99342.50;5029738;28;20045;-58
2024/04/07 06:25:05;;;;;;;0.08;0.08;;;;;;;15.70;74.06;99350.38;5034997;28;20041;-58
2024/04/07 06:27:31;;;;;;;0.03;0.03;;;;;;;15.51;76.06;99351.97;5033494;28;20835;-58
2024/04/07 06:29:58;;;;;;;0.00;0.00;;;;;;;15.32;76.24;99344.44;5032791;28;20037;-58
2024/04/07 06:32:26;;;;;;;0.00;0.00;;;;;;;15.40;76.73;99340.38;5031221;28;20454;-58
2024/04/07 06:34:53;;;;;;;0.00;0.00;;;;;;;15.31;78.03;99352.78;5029829;28;20628;-58
2024/04/07 06:37:19;;;;;;;0.00;0.00;;;;;;;15.25;78.54;99346.59;5035848;28;20044;-58
2024/04/07 06:39:47;;;;;;;0.00;0.00;;;;;;;15.36;77.97;99341.19;5037060;28;20515;-57
2024/04/07 06:42:13;;;;;;;0.03;0.03;;;;;;;15.16;79.77;99344.69;5035039;28;20457;-57
2024/04/07 06:44:39;;;;;;;0.00;0.00;;;;;;;15.23;79.78;99327.16;5036516;28;20947;-58
2024/04/07 06:47:06;;;;;;;0.00;0.00;;;;;;;15.24;80.03;99342.25;5031986;28;20531;-58
2024/04/07 06:49:34;;;;;;;0.10;0.10;;;;;;;15.32;79.63;99336.34;5029572;28;20045;-57
2024/04/07 06:52:00;;;;;;;0.10;0.10;;;;;;;15.24;81.20;99342.25;5033225;28;20045;-58
2024/04/07 06:54:27;;;;;;;0.10;0.10;;;;;;;15.07;82.32;99342.50;5028783;28;20045;-58
2024/04/07 06:56:53;;;;;;;0.13;0.10;;;;;;;15.19;81.79;99333.34;5050474;28;20148;-58
2024/04/07 06:59:20;;;;;;;0.10;0.10;;;;;;;15.23;80.21;99342.53;5029781;28;20500;-58
2024/04/07 07:01:46;;;;;;;0.10;0.10;;;;;;;15.08;81.23;99337.94;5034818;28;20075;-58
2024/04/07 07:04:13;;;;;;;0.10;0.10;;;;;;;15.81;80.76;99347.63;5034443;28;20053;-58
2024/04/07 07:06:41;;;;;;;0.10;0.10;;;;;;;15.55;78.40;99342.25;5029845;28;20831;-57
2024/04/07 07:09:08;;;;;;;0.00;0.00;;;;;;;15.35;80.19;99347.66;5028106;28;20065;-58
2024/04/07 07:11:34;;;;;;;0.10;0.10;;;;;;;15.53;79.28;99339.81;5049161;28;20077;-57
2024/04/07 07:14:01;;;;;;;0.10;0.10;;;;;;;15.40;79.57;99350.34;5030755;28;20046;-58
2024/04/07 07:16:27;;;;;;;0.10;0.10;;;;;;;15.35;79.28;99353.06;5033628;28;20567;-58
2024/04/07 07:18:54;;;;;;;0.10;0.10;;;;;;;15.74;77.93;99351.41;5031407;28;20044;-57
2024/04/07 07:21:21;;;;;;;0.00;0.00;;;;;;;16.06;76.61;99352.97;5029226;28;20049;-57
2024/04/07 07:23:49;;;;;;;0.00;0.00;;;;;;;16.08;75.78;99361.63;5034740;28;20172;-57
2024/04/07 07:26:15;;;;;;;0.10;0.10;;;;;;;16.22;76.01;99355.59;5039555;28;20820;-58
2024/04/07 07:28:42;;;;;;;0.00;0.00;;;;;;;16.27;75.36;99352.88;5035460;28;20717;-58
2024/04/07 07:31:08;;;;;;;0.00;0.00;;;;;;;16.26;76.48;99362.91;5029664;28;20073;-58
2024/04/07 07:33:35;;;;;;;0.10;0.10;;;;;;;16.46;74.92;99362.00;5037268;28;20095;-58
2024/04/07 07:36:03;;;;;;;0.00;0.00;;;;;;;16.20;76.47;99363.19;5039505;28;20819;-58
2024/04/07 07:38:29;;;;;;;0.00;0.00;;;;;;;17.23;74.35;99366.97;5050345;28;20561;-57
2024/04/07 07:40:58;;;;;;;0.00;0.00;;;;;;;16.85;75.49;99369.41;5035268;28;20037;-58
2024/04/07 07:43:24;;;;;;;0.00;0.00;;;;;;;16.57;74.17;99370.88;5035700;28;20123;-58
2024/04/07 07:45:51;;;;;;;0.00;0.00;;;;;;;16.78;74.08;99379.72;5035253;28;20056;-57
2024/04/07 07:48:17;;;;;;;0.00;0.00;;;;;;;17.09;72.59;99391.16;5042429;28;20124;-58
2024/04/07 07:50:44;;;;;;;0.10;0.10;;;;;;;16.87;72.98;99394.28;5040123;28;20829;-58
2024/04/07 07:53:10;;;;;;;0.00;0.00;;;;;;;17.46;71.54;99390.63;5038664;28;20041;-58
2024/04/07 07:55:38;;;;;;;0.10;0.10;;;;;;;17.63;71.14;99394.81;5043210;28;20052;-57
2024/04/07 07:58:05;;;;;;;0.00;0.00;;;;;;;16.95;73.49;99401.84;5040350;28;20544;-58
2024/04/07 08:00:32;;;;;;;0.00;0.00;;;;;;;17.35;72.26;99415.38;5038399;28;20037;-57
2024/04/07 08:02:59;;;;;;;0.00;0.00;;;;;;;17.21;72.22;99415.19;5029969;28;20061;-57
2024/04/07 08:05:26;;;;;;;0.00;0.00;;;;;;;16.55;75.50;99413.66;5034681;28;20041;-58
2024/04/07 08:07:52;;;;;;;0.10;0.00;;;;;;;16.47;77.47;99408.78;5031583;28;20048;-58
2024/04/07 08:10:20;;;;;;;0.00;0.00;;;;;;;16.66;75.62;99409.81;5035451;28;20309;-57
2024/04/07 08:12:46;;;;;;;0.00;0.00;;;;;;;16.57;77.62;99417.69;5038234;28;20057;-58
2024/04/07 08:15:14;;;;;;;0.00;0.00;;;;;;;16.97;75.93;99415.06;5047937;28;20113;-57
2024/04/07 08:17:41;;;;;;;0.00;0.00;;;;;;;16.77;75.50;99422.22;5032049;28;20077;-59
2024/04/07 08:20:09;;;;;;;0.00;0.00;;;;;;;16.85;76.55;99418.13;5040029;28;21039;-57
2024/04/07 08:22:36;;;;;;;0.00;0.00;;;;;;;17.17;74.43;99417.66;5033030;28;20050;-58
2024/04/07 08:25:05;;;;;;;0.00;0.00;;;;;;;17.39;73.18;99428.06;5036182;28;20116;-58
2024/04/07 08:27:33;;;;;;;0.08;0.08;;;;;;;17.53;73.75;99422.00;5032976;28;20051;-58
2024/04/07 08:30:00;;;;;;;0.00;0.00;;;;;;;17.61;74.54;99424.09;5042014;28;20071;-57
2024/04/07 08:32:28;;;;;;;0.10;0.10;;;;;;;17.95;73.08;99426.00;5033731;28;20157;-58
2024/04/07 08:34:55;;;;;;;0.00;0.00;;;;;;;17.67;73.51;99428.38;5030835;28;20048;-58
2024/04/07 08:37:21;;;;;;;0.00;0.00;;;;;;;18.25;73.51;99428.41;5034025;28;20037;-57
2024/04/07 08:39:48;;;;;;;0.00;0.00;;;;;;;18.27;72.10;99428.91;5038268;28;20069;-58
2024/04/07 08:42:15;;;;;;;0.10;0.10;;;;;;;18.89;71.06;99428.19;5032725;28;20132;-58
2024/04/07 08:44:42;;;;;;;0.00;0.00;;;;;;;18.37;72.20;99421.75;5028068;28;20045;-58
2024/04/07 08:47:08;;;;;;;0.00;0.00;;;;;;;18.58;73.19;99414.97;5039212;28;20040;-58
2024/04/07 08:49:36;;;;;;;0.05;0.05;;;;;;;18.40;73.07;99422.00;5035958;28;20041;-58
2024/04/07 08:52:03;;;;;;;0.00;0.00;;;;;;;18.33;73.00;99421.53;5031934;28;20436;-58
2024/04/07 08:54:30;;;;;;;0.20;0.10;;;;;;;19.48;68.92;99425.97;5033921;28;20687;-58
2024/04/07 08:56:57;;;;;;;0.00;0.00;;;;;;;19.09;70.42;99421.66;5031779;28;20166;-58
2024/04/07 08:59:24;;;;;;;0.00;0.00;;;;;;;20.40;64.47;99430.59;5032109;28;20856;-58
2024/04/07 09:01:50;;;;;;;0.00;0.00;;;;;;;21.13;61.28;99433.44;5031171;28;20392;-58
2024/04/07 09:04:18;;;;;;;0.00;0.00;;;;;;;21.59;58.45;99432.41;5033541;28;20048;-58
2024/04/07 09:06:45;;;;;;;0.00;0.00;;;;;;;21.79;57.15;99430.25;5035093;28;20102;-58
2024/04/07 09:09:12;;;;;;;0.00;0.00;;;;;;;21.20;57.34;99430.28;5044844;28;20052;-58
2024/04/07 09:11:39;;;;;;;0.00;0.00;;;;;;;22.31;55.25;99433.25;5033110;28;20051;-58
2024/04/07 09:14:06;;;;;;;0.00;0.00;;;;;;;22.32;54.50;99437.63;5033939;28;20041;-58
2024/04/07 09:16:32;;;;;;;0.10;0.10;;;;;;;21.61;55.98;99432.88;5029494;28;20546;-58
2024/04/07 09:19:00;;;;;;;0.00;0.00;;;;;;;22.48;52.30;99436.06;5037449;28;20064;-58
2024/04/07 09:21:26;;;;;;;0.00;0.00;;;;;;;21.14;55.39;99426.84;5034169;28;20045;-58
2024/04/07 09:23:55;;;;;;;0.00;0.00;;;;;;;21.01;56.69;99435.88;5036805;28;20535;-58
2024/04/07 09:26:21;;;;;;;0.00;0.00;;;;;;;22.79;52.37;99424.25;5032730;28;20512;-57
2024/04/07 09:28:48;;;;;;;0.10;0.03;;;;;;;22.11;52.63;99440.84;5033336;28;20048;-58
2024/04/07 09:31:14;;;;;;;0.00;0.00;;;;;;;21.63;53.99;99433.38;5035115;28;20572;-58
2024/04/07 09:33:44;;;;;;;0.00;0.00;;;;;;;22.35;54.02;99434.25;5030092;28;20051;-58
2024/04/07 09:36:10;;;;;;;0.00;0.00;;;;;;;22.86;52.59;99435.50;5039003;28;20086;-58
2024/04/07 09:38:37;;;;;;;0.00;0.00;;;;;;;22.67;53.36;99432.28;5034063;28;20041;-58
2024/04/07 09:41:05;;;;;;;0.00;0.00;;;;;;;22.16;53.40;99440.72;5037222;28;20037;-58
2024/04/07 09:43:33;;;;;;;0.00;0.00;;;;;;;21.87;52.20;99434.97;5029847;28;20068;-58
2024/04/07 09:45:59;;;;;;;0.00;0.00;;;;;;;21.73;52.90;99441.28;5037001;28;20063;-59
2024/04/07 09:48:26;;;;;;;0.00;0.00;;;;;;;22.12;51.36;99433.50;5029760;28;20073;-58
2024/04/07 09:50:54;;;;;;;0.00;0.00;;;;;;;22.04;52.65;99426.88;5028059;28;20061;-58
2024/04/07 09:53:22;;;;;;;0.00;0.00;;;;;;;21.53;52.27;99428.16;5028605;28;20050;-58
2024/04/07 09:55:49;;;;;;;0.00;0.00;;;;;;;21.82;52.24;99435.09;5033191;28;20465;-58
2024/04/07 09:58:18;;;;;;;0.00;0.00;;;;;;;21.87;52.60;99426.78;5032671;28;20406;-59
2024/04/07 10:00:44;;;;;;;0.00;0.00;;;;;;;22.55;50.35;99425.47;5035322;28;20043;-58
2024/04/07 10:03:11;;;;;;;0.00;0.00;;;;;;;22.74;51.51;99421.66;5036366;28;20084;-58
2024/04/07 10:05:37;;;;;;;0.00;0.00;;;;;;;22.03;51.62;99413.53;5035869;28;20064;-58
2024/04/07 10:08:06;;;;;;;0.00;0.00;;;;;;;22.23;50.90;99420.41;5033022;28;20565;-58
2024/04/07 10:10:32;;;;;;;0.00;0.00;;;;;;;22.32;50.82;99418.50;5026741;28;20044;-58
2024/04/07 10:13:08;;;;;;;0.00;0.00;;;;;;;22.19;50.95;99406.56;5030927;28;20055;-58
2024/04/07 10:15:35;;;;;;;0.00;0.00;;;;;;;21.79;52.34;99408.44;5030073;28;20163;-58
2024/04/07 10:18:11;;;;;;;0.00;0.00;;;;;;;22.34;51.24;99416.25;5036809;28;20140;-58
2024/04/07 10:20:38;;;;;;;0.00;0.00;;;;;;;21.91;51.04;99398.53;5035336;28;20173;-58
2024/04/07 10:23:07;;;;;;;0.00;0.00;;;;;;;22.58;50.11;99407.66;5024036;28;20597;-58
2024/04/07 10:25:34;;;;;;;0.00;0.00;;;;;;;23.07;48.27;99408.41;5032056;28;20132;-58
2024/04/07 10:28:01;;;;;;;0.00;0.00;;;;;;;23.23;46.99;99406.78;5036912;28;20041;-58
2024/04/07 10:30:27;;;;;;;0.00;0.00;;;;;;;23.93;45.44;99420.38;5030410;28;20064;-58
2024/04/07 10:32:56;;;;;;;0.00;0.00;;;;;;;24.31;45.22;99406.72;5030294;28;20045;-58
2024/04/07 10:35:24;;;;;;;0.08;0.00;;;;;;;24.82;44.54;99408.69;5035483;28;20061;-60
2024/04/07 10:37:51;;;;;;;0.00;0.00;;;;;;;24.22;46.52;99411.41;5036382;28;20033;-60
2024/04/07 10:40:18;;;;;;;0.00;0.00;;;;;;;24.08;45.00;99416.28;5037034;28;22033;-58
2024/04/07 10:42:45;;;;;;;0.00;0.00;;;;;;;24.06;45.98;99424.84;5034334;28;20559;-58
2024/04/07 10:45:12;;;;;;;0.00;0.00;;;;;;;23.09;46.03;99421.72;5038143;28;20099;-58
2024/04/07 10:47:39;;;;;;;0.00;0.00;;;;;;;22.70;46.99;99418.78;5033094;28;20059;-58
2024/04/07 10:50:08;;;;;;;0.00;0.00;;;;;;;22.89;46.60;99423.94;5037301;28;20126;-58
2024/04/07 10:52:36;;;;;;;0.00;0.00;;;;;;;23.69;45.66;99418.16;5034350;28;20414;-58
2024/04/07 10:55:04;;;;;;;0.00;0.00;;;;;;;22.76;46.88;99408.47;5033865;28;20131;-58
2024/04/07 10:57:32;;;;;;;0.00;0.00;;;;;;;22.95;46.53;99409.00;5038425;28;20053;-58
2024/04/07 10:59:58;;;;;;;0.00;0.00;;;;;;;22.30;45.99;99409.81;5043307;28;20051;-58
2024/04/07 11:02:25;;;;;;;0.00;0.00;;;;;;;23.11;45.62;99414.81;5040845;28;20050;-58
2024/04/07 11:04:51;;;;;;;0.03;0.00;;;;;;;23.10;46.17;99406.94;5038076;28;20049;-57
2024/04/07 11:07:20;;;;;;;0.00;0.00;;;;;;;23.40;46.44;99410.63;5036955;28;20068;-58
2024/04/07 11:09:46;;;;;;;0.00;0.00;;;;;;;23.59;45.65;99408.38;5039409;28;20509;-58
2024/04/07 11:12:13;;;;;;;0.00;0.00;;;;;;;23.46;46.95;99415.63;5037651;28;20121;-58
2024/04/07 11:14:40;;;;;;;0.00;0.00;;;;;;;22.69;46.09;99419.91;5031643;28;20136;-58
2024/04/07 11:17:07;;;;;;;0.00;0.00;;;;;;;23.59;47.23;99410.31;5035740;28;20038;-58
2024/04/07 11:19:33;;;;;;;0.00;0.00;;;;;;;24.20;45.03;99407.41;5033873;28;20043;-58
2024/04/07 11:22:00;;;;;;;0.00;0.00;;;;;;;24.19;43.15;99406.59;5036337;28;20697;-58
2024/04/07 11:24:28;;;;;;;0.00;0.00;;;;;;;24.54;42.76;99406.47;5033874;28;20051;-58
2024/04/07 11:26:55;;;;;;;0.00;0.00;;;;;;;24.02;43.92;99399.25;5034805;28;20084;-58
2024/04/07 11:29:21;;;;;;;0.00;0.00;;;;;;;24.00;43.60;99400.72;5041069;28;20449;-58
2024/04/07 11:31:53;;;;;;;0.00;0.00;;;;;;;23.04;45.83;99415.31;5039285;28;20037;-58
2024/04/07 11:34:20;;;;;;;0.00;0.00;;;;;;;23.39;45.42;99398.09;5040865;28;20053;-58
2024/04/07 11:36:48;;;;;;;0.00;0.00;;;;;;;23.79;45.25;99392.38;5038558;28;20051;-58